sensor_id;sensor_type;location;lat;lon;timestamp;P1;durP1;ratioP1;P2;durP2;ratioP2
62457;SDS011;48509;52.122;5.250;2023-02-13T00:00:16;51.3;;;38.21;;
62457;SDS011;48509;52.122;5.250;2023-02-13T00:01:55;52.2;;;38.31;;
62457;SDS011;48509;52.122;5.250;2023-02-13T00:03:32;49.6;;;36.5;;
62457;SDS011;48509;52.122;5.250;2023-02-13T00:05:09;51.7;;;38.21;;
62457;SDS011;48509;52.122;5.250;2023-02-13T00:08:23;52.5;;;37.9;;
62457;SDS011;48509;52.122;5.250;2023-02-13T00:09:59;48.8;;;35.9;;
62457;SDS011;48509;52.122;5.250;2023-02-13T00:11:37;53.3;;;37.5;;
62457;SDS011;48509;52.122;5.250;2023-02-13T00:14:51;53.7;;;38.6;;
62457;SDS011;48509;52.122;5.250;2023-02-13T00:16:28;56.0;;;38.21;;
62457;SDS011;48509;52.122;5.250;2023-02-13T00:18:04;48.9;;;37.9;;
62457;SDS011;48509;52.122;5.250;2023-02-13T00:21:19;51.5;;;36.71;;
62457;SDS011;48509;52.122;5.250;2023-02-13T00:22:57;50.2;;;37.0;;
62457;SDS011;48509;52.122;5.250;2023-02-13T00:24:33;51.7;;;37.6;;
62457;SDS011;48509;52.122;5.250;2023-02-13T00:26:10;48.8;;;36.4;;
62457;SDS011;48509;52.122;5.250;2023-02-13T00:29:29;53.2;;;38.21;;
62457;SDS011;48509;52.122;5.250;2023-02-13T00:31:06;46.5;;;34.31;;
62457;SDS011;48509;52.122;5.250;2023-02-13T00:32:44;53.0;;;36.9;;
62457;SDS011;48509;52.122;5.250;2023-02-13T00:36:01;52.1;;;37.4;;
62457;SDS011;48509;52.122;5.250;2023-02-13T00:37:40;48.1;;;36.81;;
62457;SDS011;48509;52.122;5.250;2023-02-13T00:39:17;51.5;;;38.5;;
62457;SDS011;48509;52.122;5.250;2023-02-13T00:40:54;51.4;;;37.5;;
62457;SDS011;48509;52.122;5.250;2023-02-13T00:44:07;50.1;;;35.31;;
62457;SDS011;48509;52.122;5.250;2023-02-13T00:45:44;54.8;;;39.9;;
62457;SDS011;48509;52.122;5.250;2023-02-13T00:47:21;47.6;;;35.81;;
62457;SDS011;48509;52.122;5.250;2023-02-13T00:50:34;52.3;;;36.6;;
62457;SDS011;48509;52.122;5.250;2023-02-13T00:52:10;49.0;;;36.1;;
62457;SDS011;48509;52.122;5.250;2023-02-13T00:53:47;52.3;;;36.6;;
62457;SDS011;48509;52.122;5.250;2023-02-13T00:55:24;45.8;;;34.21;;
62457;SDS011;48509;52.122;5.250;2023-02-13T00:58:39;48.8;;;34.4;;
62457;SDS011;48509;52.122;5.250;2023-02-13T01:00:15;49.5;;;34.6;;
62457;SDS011;48509;52.122;5.250;2023-02-13T01:01:52;46.4;;;34.81;;
62457;SDS011;48509;52.122;5.250;2023-02-13T01:05:06;50.9;;;35.6;;
62457;SDS011;48509;52.122;5.250;2023-02-13T01:06:43;48.0;;;34.81;;
62457;SDS011;48509;52.122;5.250;2023-02-13T01:08:20;48.5;;;34.0;;
62457;SDS011;48509;52.122;5.250;2023-02-13T01:11:33;50.9;;;36.21;;
62457;SDS011;48509;52.122;5.250;2023-02-13T01:13:10;45.9;;;34.5;;
62457;SDS011;48509;52.122;5.250;2023-02-13T01:14:48;45.9;;;32.71;;
62457;SDS011;48509;52.122;5.250;2023-02-13T01:16:25;47.0;;;33.3;;
62457;SDS011;48509;52.122;5.250;2023-02-13T01:19:40;51.3;;;34.4;;
62457;SDS011;48509;52.122;5.250;2023-02-13T01:21:18;49.0;;;34.0;;
62457;SDS011;48509;52.122;5.250;2023-02-13T01:22:56;46.6;;;34.21;;
62457;SDS011;48509;52.122;5.250;2023-02-13T01:26:12;46.4;;;33.4;;
62457;SDS011;48509;52.122;5.250;2023-02-13T01:27:53;45.0;;;33.4;;
62457;SDS011;48509;52.122;5.250;2023-02-13T01:29:30;47.7;;;33.71;;
62457;SDS011;48509;52.122;5.250;2023-02-13T01:31:07;44.5;;;33.6;;
62457;SDS011;48509;52.122;5.250;2023-02-13T01:34:22;46.9;;;32.5;;
62457;SDS011;48509;52.122;5.250;2023-02-13T01:36:04;43.7;;;31.6;;
62457;SDS011;48509;52.122;5.250;2023-02-13T01:37:42;45.4;;;32.5;;
62457;SDS011;48509;52.122;5.250;2023-02-13T01:39:19;43.6;;;31.1;;
62457;SDS011;48509;52.122;5.250;2023-02-13T01:42:32;39.6;;;31.0;;
62457;SDS011;48509;52.122;5.250;2023-02-13T01:45:21;42.1;;;30.5;;
62457;SDS011;48509;52.122;5.250;2023-02-13T01:47:06;43.7;;;32.4;;
62457;SDS011;48509;52.122;5.250;2023-02-13T01:48:44;50.1;;;34.1;;
62457;SDS011;48509;52.122;5.250;2023-02-13T01:50:24;44.3;;;32.5;;
62457;SDS011;48509;52.122;5.250;2023-02-13T01:52:07;44.2;;;31.3;;
62457;SDS011;48509;52.122;5.250;2023-02-13T01:55:27;47.2;;;31.0;;
62457;SDS011;48509;52.122;5.250;2023-02-13T01:57:08;44.2;;;31.2;;
62457;SDS011;48509;52.122;5.250;2023-02-13T01:58:50;41.5;;;29.8;;
62457;SDS011;48509;52.122;5.250;2023-02-13T02:00:34;46.5;;;29.7;;
62457;SDS011;48509;52.122;5.250;2023-02-13T02:03:52;44.9;;;30.6;;
62457;SDS011;48509;52.122;5.250;2023-02-13T02:05:33;41.7;;;30.2;;
62457;SDS011;48509;52.122;5.250;2023-02-13T02:07:12;42.0;;;28.7;;
62457;SDS011;48509;52.122;5.250;2023-02-13T02:08:58;43.7;;;30.0;;
62457;SDS011;48509;52.122;5.250;2023-02-13T02:10:40;38.6;;;29.5;;
62457;SDS011;48509;52.122;5.250;2023-02-13T02:14:01;43.8;;;30.7;;
62457;SDS011;48509;52.122;5.250;2023-02-13T02:15:39;39.81;;;29.7;;
62457;SDS011;48509;52.122;5.250;2023-02-13T02:17:17;40.21;;;28.6;;
62457;SDS011;48509;52.122;5.250;2023-02-13T02:20:57;43.1;;;30.8;;
62457;SDS011;48509;52.122;5.250;2023-02-13T02:24:02;38.31;;;29.3;;
62457;SDS011;48509;52.122;5.250;2023-02-13T02:34:15;47.1;;;30.5;;
62457;SDS011;48509;52.122;5.250;2023-02-13T02:36:06;47.1;;;30.5;;
62457;SDS011;48509;52.122;5.250;2023-02-13T02:38:07;42.4;;;29.2;;
62457;SDS011;48509;52.122;5.250;2023-02-13T02:40:13;44.5;;;32.1;;
62457;SDS011;48509;52.122;5.250;2023-02-13T02:43:54;41.3;;;29.3;;
62457;SDS011;48509;52.122;5.250;2023-02-13T02:45:43;39.81;;;28.9;;
62457;SDS011;48509;52.122;5.250;2023-02-13T02:50:08;40.21;;;30.2;;
62457;SDS011;48509;52.122;5.250;2023-02-13T02:51:54;43.6;;;30.2;;
62457;SDS011;48509;52.122;5.250;2023-02-13T02:53:40;42.9;;;27.9;;
62457;SDS011;48509;52.122;5.250;2023-02-13T02:55:29;44.2;;;29.7;;
62457;SDS011;48509;52.122;5.250;2023-02-13T02:57:12;42.9;;;27.8;;
62457;SDS011;48509;52.122;5.250;2023-02-13T03:07:16;38.1;;;29.7;;
62457;SDS011;48509;52.122;5.250;2023-02-13T03:13:28;39.81;;;29.4;;
62457;SDS011;48509;52.122;5.250;2023-02-13T03:15:16;41.9;;;28.5;;
62457;SDS011;48509;52.122;5.250;2023-02-13T03:22:24;40.81;;;28.5;;
62457;SDS011;48509;52.122;5.250;2023-02-13T03:24:12;40.6;;;29.6;;
62457;SDS011;48509;52.122;5.250;2023-02-13T03:26:05;40.21;;;30.5;;
62457;SDS011;48509;52.122;5.250;2023-02-13T03:30:36;41.5;;;29.6;;
62457;SDS011;48509;52.122;5.250;2023-02-13T03:32:35;43.6;;;29.8;;
62457;SDS011;48509;52.122;5.250;2023-02-13T03:34:21;40.71;;;28.2;;
62457;SDS011;48509;52.122;5.250;2023-02-13T03:40:08;42.3;;;29.9;;
62457;SDS011;48509;52.122;5.250;2023-02-13T03:41:53;40.81;;;28.8;;
62457;SDS011;48509;52.122;5.250;2023-02-13T03:43:36;42.9;;;27.4;;
62457;SDS011;48509;52.122;5.250;2023-02-13T03:45:52;41.7;;;29.7;;
62457;SDS011;48509;52.122;5.250;2023-02-13T03:47:30;49.0;;;30.7;;
62457;SDS011;48509;52.122;5.250;2023-02-13T03:50:11;38.1;;;28.1;;
62457;SDS011;48509;52.122;5.250;2023-02-13T03:51:52;43.1;;;29.8;;
62457;SDS011;48509;52.122;5.250;2023-02-13T03:53:33;45.0;;;29.7;;
62457;SDS011;48509;52.122;5.250;2023-02-13T03:59:25;43.5;;;29.2;;
62457;SDS011;48509;52.122;5.250;2023-02-13T04:01:06;39.1;;;28.5;;
62457;SDS011;48509;52.122;5.250;2023-02-13T04:02:49;37.71;;;27.8;;
62457;SDS011;48509;52.122;5.250;2023-02-13T04:04:34;43.2;;;29.5;;
62457;SDS011;48509;52.122;5.250;2023-02-13T04:06:19;45.4;;;31.7;;
62457;SDS011;48509;52.122;5.250;2023-02-13T04:08:02;39.5;;;28.5;;
62457;SDS011;48509;52.122;5.250;2023-02-13T04:11:20;46.1;;;30.0;;
62457;SDS011;48509;52.122;5.250;2023-02-13T04:13:06;45.6;;;30.8;;
62457;SDS011;48509;52.122;5.250;2023-02-13T04:14:52;41.9;;;30.3;;
62457;SDS011;48509;52.122;5.250;2023-02-13T04:16:34;48.5;;;31.2;;
62457;SDS011;48509;52.122;5.250;2023-02-13T04:19:57;44.8;;;31.9;;
62457;SDS011;48509;52.122;5.250;2023-02-13T04:21:34;43.7;;;29.7;;
62457;SDS011;48509;52.122;5.250;2023-02-13T04:23:13;39.71;;;28.8;;
62457;SDS011;48509;52.122;5.250;2023-02-13T04:24:51;44.5;;;30.9;;
62457;SDS011;48509;52.122;5.250;2023-02-13T04:28:11;50.3;;;33.5;;
62457;SDS011;48509;52.122;5.250;2023-02-13T04:29:47;39.9;;;28.6;;
62457;SDS011;48509;52.122;5.250;2023-02-13T04:31:23;43.0;;;30.5;;
62457;SDS011;48509;52.122;5.250;2023-02-13T04:32:59;40.6;;;29.7;;
62457;SDS011;48509;52.122;5.250;2023-02-13T04:36:12;42.7;;;30.6;;
62457;SDS011;48509;52.122;5.250;2023-02-13T04:37:49;44.8;;;30.9;;
62457;SDS011;48509;52.122;5.250;2023-02-13T04:39:25;44.4;;;31.0;;
62457;SDS011;48509;52.122;5.250;2023-02-13T04:42:37;46.3;;;32.21;;
62457;SDS011;48509;52.122;5.250;2023-02-13T04:44:13;45.7;;;32.21;;
62457;SDS011;48509;52.122;5.250;2023-02-13T04:45:50;44.0;;;30.9;;
62457;SDS011;48509;52.122;5.250;2023-02-13T04:49:03;47.9;;;31.9;;
62457;SDS011;48509;52.122;5.250;2023-02-13T04:50:39;44.7;;;30.2;;
62457;SDS011;48509;52.122;5.250;2023-02-13T04:52:15;40.9;;;30.2;;
62457;SDS011;48509;52.122;5.250;2023-02-13T04:53:51;42.5;;;30.3;;
62457;SDS011;48509;52.122;5.250;2023-02-13T04:57:05;44.0;;;31.2;;
62457;SDS011;48509;52.122;5.250;2023-02-13T04:58:41;46.3;;;30.5;;
62457;SDS011;48509;52.122;5.250;2023-02-13T05:00:18;45.4;;;31.1;;
62457;SDS011;48509;52.122;5.250;2023-02-13T05:03:31;47.6;;;32.21;;
62457;SDS011;48509;52.122;5.250;2023-02-13T05:05:07;49.4;;;32.0;;
62457;SDS011;48509;52.122;5.250;2023-02-13T05:06:44;49.1;;;33.4;;
62457;SDS011;48509;52.122;5.250;2023-02-13T05:09:56;45.7;;;32.21;;
62457;SDS011;48509;52.122;5.250;2023-02-13T05:11:32;47.2;;;33.0;;
62457;SDS011;48509;52.122;5.250;2023-02-13T05:13:08;49.4;;;31.2;;
62457;SDS011;48509;52.122;5.250;2023-02-13T05:14:44;52.9;;;32.9;;
62457;SDS011;48509;52.122;5.250;2023-02-13T05:17:57;46.3;;;31.6;;
62457;SDS011;48509;52.122;5.250;2023-02-13T05:19:33;44.3;;;31.8;;
62457;SDS011;48509;52.122;5.250;2023-02-13T05:23:31;44.8;;;30.4;;
62457;SDS011;48509;52.122;5.250;2023-02-13T05:25:07;52.9;;;32.9;;
62457;SDS011;48509;52.122;5.250;2023-02-13T05:26:43;45.3;;;31.0;;
62457;SDS011;48509;52.122;5.250;2023-02-13T05:29:23;45.3;;;31.1;;
62457;SDS011;48509;52.122;5.250;2023-02-13T05:31:01;45.5;;;31.1;;
62457;SDS011;48509;52.122;5.250;2023-02-13T05:32:37;43.8;;;30.7;;
62457;SDS011;48509;52.122;5.250;2023-02-13T05:34:13;47.9;;;31.6;;
62457;SDS011;48509;52.122;5.250;2023-02-13T05:35:50;49.1;;;32.8;;
62457;SDS011;48509;52.122;5.250;2023-02-13T05:39:03;45.0;;;31.9;;
62457;SDS011;48509;52.122;5.250;2023-02-13T05:40:39;48.8;;;32.9;;
62457;SDS011;48509;52.122;5.250;2023-02-13T05:42:15;42.5;;;31.3;;
62457;SDS011;48509;52.122;5.250;2023-02-13T05:45:27;51.1;;;33.9;;
62457;SDS011;48509;52.122;5.250;2023-02-13T05:47:03;46.1;;;32.1;;
62457;SDS011;48509;52.122;5.250;2023-02-13T05:48:40;46.5;;;32.21;;
62457;SDS011;48509;52.122;5.250;2023-02-13T05:51:52;47.0;;;32.4;;
62457;SDS011;48509;52.122;5.250;2023-02-13T05:53:28;51.4;;;33.6;;
62457;SDS011;48509;52.122;5.250;2023-02-13T05:55:05;48.7;;;31.7;;
62457;SDS011;48509;52.122;5.250;2023-02-13T05:56:41;44.7;;;30.8;;
62457;SDS011;48509;52.122;5.250;2023-02-13T05:59:56;52.3;;;33.71;;
62457;SDS011;48509;52.122;5.250;2023-02-13T06:01:32;40.1;;;30.1;;
62457;SDS011;48509;52.122;5.250;2023-02-13T06:03:09;47.2;;;32.6;;
62457;SDS011;48509;52.122;5.250;2023-02-13T06:06:21;50.9;;;34.71;;
62457;SDS011;48509;52.122;5.250;2023-02-13T06:07:58;56.7;;;35.9;;
62457;SDS011;48509;52.122;5.250;2023-02-13T06:09:34;49.2;;;33.0;;
62457;SDS011;48509;52.122;5.250;2023-02-13T06:12:46;50.3;;;34.71;;
62457;SDS011;48509;52.122;5.250;2023-02-13T06:14:22;52.5;;;33.71;;
62457;SDS011;48509;52.122;5.250;2023-02-13T06:15:58;53.3;;;33.21;;
62457;SDS011;48509;52.122;5.250;2023-02-13T06:17:35;47.5;;;33.3;;
62457;SDS011;48509;52.122;5.250;2023-02-13T06:20:47;47.7;;;32.3;;
62457;SDS011;48509;52.122;5.250;2023-02-13T06:22:23;44.4;;;31.3;;
62457;SDS011;48509;52.122;5.250;2023-02-13T06:23:59;44.7;;;31.9;;
62457;SDS011;48509;52.122;5.250;2023-02-13T06:27:13;50.2;;;32.9;;
62457;SDS011;48509;52.122;5.250;2023-02-13T06:28:49;50.4;;;32.71;;
62457;SDS011;48509;52.122;5.250;2023-02-13T06:30:25;51.1;;;32.6;;
62457;SDS011;48509;52.122;5.250;2023-02-13T06:33:38;51.1;;;32.4;;
62457;SDS011;48509;52.122;5.250;2023-02-13T06:35:15;47.8;;;33.6;;
62457;SDS011;48509;52.122;5.250;2023-02-13T06:36:52;49.9;;;33.71;;
62457;SDS011;48509;52.122;5.250;2023-02-13T06:38:28;52.1;;;34.4;;
62457;SDS011;48509;52.122;5.250;2023-02-13T06:41:42;50.8;;;34.1;;
62457;SDS011;48509;52.122;5.250;2023-02-13T06:43:18;47.8;;;33.8;;
62457;SDS011;48509;52.122;5.250;2023-02-13T06:44:55;56.3;;;34.5;;
62457;SDS011;48509;52.122;5.250;2023-02-13T06:48:07;48.6;;;30.8;;
62457;SDS011;48509;52.122;5.250;2023-02-13T06:49:43;47.4;;;31.6;;
62457;SDS011;48509;52.122;5.250;2023-02-13T06:51:19;46.6;;;31.5;;
62457;SDS011;48509;52.122;5.250;2023-02-13T06:54:32;51.2;;;33.1;;
62457;SDS011;48509;52.122;5.250;2023-02-13T06:56:08;48.1;;;33.9;;
62457;SDS011;48509;52.122;5.250;2023-02-13T06:57:45;54.6;;;34.31;;
62457;SDS011;48509;52.122;5.250;2023-02-13T06:59:22;48.6;;;34.31;;
62457;SDS011;48509;52.122;5.250;2023-02-13T07:02:36;53.9;;;34.81;;
62457;SDS011;48509;52.122;5.250;2023-02-13T07:04:12;56.3;;;35.1;;
62457;SDS011;48509;52.122;5.250;2023-02-13T07:05:50;51.0;;;34.6;;
62457;SDS011;48509;52.122;5.250;2023-02-13T07:09:07;48.1;;;32.5;;
62457;SDS011;48509;52.122;5.250;2023-02-13T07:10:43;48.1;;;32.5;;
62457;SDS011;48509;52.122;5.250;2023-02-13T07:12:20;45.6;;;32.6;;
62457;SDS011;48509;52.122;5.250;2023-02-13T07:15:32;49.6;;;33.1;;
62457;SDS011;48509;52.122;5.250;2023-02-13T07:17:10;48.8;;;33.3;;
62457;SDS011;48509;52.122;5.250;2023-02-13T07:18:46;54.2;;;36.1;;
62457;SDS011;48509;52.122;5.250;2023-02-13T07:20:22;58.9;;;37.4;;
62457;SDS011;48509;52.122;5.250;2023-02-13T07:23:36;52.7;;;34.31;;
62457;SDS011;48509;52.122;5.250;2023-02-13T07:25:12;47.7;;;33.71;;
62457;SDS011;48509;52.122;5.250;2023-02-13T07:26:48;55.3;;;37.4;;
62457;SDS011;48509;52.122;5.250;2023-02-13T07:30:02;51.7;;;36.5;;
62457;SDS011;48509;52.122;5.250;2023-02-13T07:31:39;63.1;;;40.4;;
62457;SDS011;48509;52.122;5.250;2023-02-13T07:33:15;49.5;;;34.81;;
62457;SDS011;48509;52.122;5.250;2023-02-13T07:36:27;52.2;;;36.21;;
62457;SDS011;48509;52.122;5.250;2023-02-13T07:38:03;57.6;;;37.5;;
62457;SDS011;48509;52.122;5.250;2023-02-13T07:39:40;52.1;;;36.81;;
62457;SDS011;48509;52.122;5.250;2023-02-13T07:41:16;57.9;;;39.21;;
62457;SDS011;48509;52.122;5.250;2023-02-13T07:44:29;57.7;;;39.4;;
62457;SDS011;48509;52.122;5.250;2023-02-13T07:46:05;55.4;;;36.5;;
62457;SDS011;48509;52.122;5.250;2023-02-13T07:47:41;58.6;;;39.0;;
62457;SDS011;48509;52.122;5.250;2023-02-13T07:50:54;53.4;;;35.71;;
62457;SDS011;48509;52.122;5.250;2023-02-13T07:52:36;63.2;;;40.5;;
62457;SDS011;48509;52.122;5.250;2023-02-13T07:54:12;57.4;;;39.21;;
62457;SDS011;48509;52.122;5.250;2023-02-13T07:55:49;59.6;;;38.71;;
62457;SDS011;48509;52.122;5.250;2023-02-13T07:59:01;65.2;;;41.3;;
62457;SDS011;48509;52.122;5.250;2023-02-13T08:00:38;62.4;;;40.1;;
62457;SDS011;48509;52.122;5.250;2023-02-13T08:02:14;59.5;;;39.0;;
62457;SDS011;48509;52.122;5.250;2023-02-13T08:05:27;61.8;;;40.9;;
62457;SDS011;48509;52.122;5.250;2023-02-13T08:07:05;57.9;;;36.6;;
62457;SDS011;48509;52.122;5.250;2023-02-13T08:08:41;56.3;;;38.71;;
62457;SDS011;48509;52.122;5.250;2023-02-13T08:13:51;64.5;;;40.4;;
62457;SDS011;48509;52.122;5.250;2023-02-13T08:15:28;58.3;;;38.71;;
62457;SDS011;48509;52.122;5.250;2023-02-13T08:17:04;66.3;;;42.2;;
62457;SDS011;48509;52.122;5.250;2023-02-13T08:20:16;60.2;;;41.3;;
62457;SDS011;48509;52.122;5.250;2023-02-13T08:21:53;60.3;;;39.6;;
62457;SDS011;48509;52.122;5.250;2023-02-13T08:23:30;73.0;;;43.7;;
62457;SDS011;48509;52.122;5.250;2023-02-13T08:26:43;60.8;;;40.6;;
62457;SDS011;48509;52.122;5.250;2023-02-13T08:28:19;63.2;;;41.6;;
62457;SDS011;48509;52.122;5.250;2023-02-13T08:29:55;65.2;;;43.0;;
62457;SDS011;48509;52.122;5.250;2023-02-13T08:31:32;55.3;;;39.1;;
62457;SDS011;48509;52.122;5.250;2023-02-13T08:34:45;56.8;;;38.5;;
62457;SDS011;48509;52.122;5.250;2023-02-13T08:36:21;58.3;;;39.5;;
62457;SDS011;48509;52.122;5.250;2023-02-13T08:38:00;62.9;;;40.6;;
62457;SDS011;48509;52.122;5.250;2023-02-13T08:41:13;67.5;;;44.3;;
62457;SDS011;48509;52.122;5.250;2023-02-13T08:42:50;68.41;;;44.6;;
62457;SDS011;48509;52.122;5.250;2023-02-13T08:44:27;59.8;;;41.7;;
62457;SDS011;48509;52.122;5.250;2023-02-13T08:46:03;60.7;;;42.0;;
62457;SDS011;48509;52.122;5.250;2023-02-13T08:49:16;59.7;;;41.4;;
62457;SDS011;48509;52.122;5.250;2023-02-13T08:50:52;59.7;;;41.4;;
62457;SDS011;48509;52.122;5.250;2023-02-13T08:52:29;61.9;;;43.1;;
62457;SDS011;48509;52.122;5.250;2023-02-13T08:55:41;65.2;;;43.8;;
62457;SDS011;48509;52.122;5.250;2023-02-13T08:57:17;58.7;;;40.5;;
62457;SDS011;48509;52.122;5.250;2023-02-13T08:58:54;60.1;;;39.9;;
62457;SDS011;48509;52.122;5.250;2023-02-13T09:02:08;57.4;;;40.5;;
62457;SDS011;48509;52.122;5.250;2023-02-13T09:03:48;52.7;;;38.31;;
62457;SDS011;48509;52.122;5.250;2023-02-13T09:05:25;52.2;;;38.21;;
62457;SDS011;48509;52.122;5.250;2023-02-13T09:07:02;56.6;;;40.1;;
62457;SDS011;48509;52.122;5.250;2023-02-13T09:10:15;52.3;;;37.31;;
62457;SDS011;48509;52.122;5.250;2023-02-13T09:11:55;60.4;;;40.5;;
62457;SDS011;48509;52.122;5.250;2023-02-13T09:13:33;63.6;;;42.1;;
62457;SDS011;48509;52.122;5.250;2023-02-13T09:16:47;60.5;;;40.0;;
62457;SDS011;48509;52.122;5.250;2023-02-13T09:18:23;57.3;;;40.0;;
62457;SDS011;48509;52.122;5.250;2023-02-13T09:19:59;56.8;;;39.6;;
62457;SDS011;48509;52.122;5.250;2023-02-13T09:21:35;52.9;;;35.9;;
62457;SDS011;48509;52.122;5.250;2023-02-13T09:24:47;55.1;;;38.0;;
62457;SDS011;48509;52.122;5.250;2023-02-13T09:26:24;55.2;;;40.1;;
62457;SDS011;48509;52.122;5.250;2023-02-13T09:28:00;52.1;;;37.71;;
62457;SDS011;48509;52.122;5.250;2023-02-13T09:31:14;53.8;;;38.71;;
62457;SDS011;48509;52.122;5.250;2023-02-13T09:32:52;54.4;;;37.71;;
62457;SDS011;48509;52.122;5.250;2023-02-13T09:34:30;55.4;;;37.0;;
62457;SDS011;48509;52.122;5.250;2023-02-13T09:37:45;45.4;;;34.31;;
62457;SDS011;48509;52.122;5.250;2023-02-13T09:39:22;49.4;;;35.0;;
62457;SDS011;48509;52.122;5.250;2023-02-13T09:40:59;52.6;;;37.0;;
62457;SDS011;48509;52.122;5.250;2023-02-13T09:42:37;46.3;;;34.21;;
62457;SDS011;48509;52.122;5.250;2023-02-13T09:46:15;42.7;;;32.21;;
62457;SDS011;48509;52.122;5.250;2023-02-13T09:47:55;46.2;;;33.71;;
62457;SDS011;48509;52.122;5.250;2023-02-13T09:49:32;45.1;;;34.4;;
62457;SDS011;48509;52.122;5.250;2023-02-13T09:51:13;46.3;;;32.8;;
62457;SDS011;48509;52.122;5.250;2023-02-13T09:54:31;44.8;;;31.8;;
62457;SDS011;48509;52.122;5.250;2023-02-13T09:56:09;42.6;;;31.6;;
62457;SDS011;48509;52.122;5.250;2023-02-13T09:57:52;41.3;;;31.2;;
62457;SDS011;48509;52.122;5.250;2023-02-13T09:59:38;42.5;;;31.5;;
62457;SDS011;48509;52.122;5.250;2023-02-13T10:01:25;45.7;;;32.9;;
62457;SDS011;48509;52.122;5.250;2023-02-13T10:05:09;45.1;;;31.3;;
62457;SDS011;48509;52.122;5.250;2023-02-13T10:07:00;40.31;;;30.7;;
62457;SDS011;48509;52.122;5.250;2023-02-13T10:08:52;41.8;;;30.8;;
62457;SDS011;48509;52.122;5.250;2023-02-13T10:10:43;41.8;;;30.8;;
62457;SDS011;48509;52.122;5.250;2023-02-13T10:12:29;42.7;;;30.4;;
62457;SDS011;48509;52.122;5.250;2023-02-13T10:14:22;41.7;;;27.9;;
62457;SDS011;48509;52.122;5.250;2023-02-13T10:16:07;43.0;;;28.6;;
62457;SDS011;48509;52.122;5.250;2023-02-13T10:19:33;39.4;;;28.5;;
62457;SDS011;48509;52.122;5.250;2023-02-13T10:21:17;40.9;;;29.9;;
62457;SDS011;48509;52.122;5.250;2023-02-13T10:22:58;39.31;;;28.6;;
62457;SDS011;48509;52.122;5.250;2023-02-13T10:24:46;36.6;;;27.8;;
62457;SDS011;48509;52.122;5.250;2023-02-13T10:26:41;35.9;;;28.3;;
62457;SDS011;48509;52.122;5.250;2023-02-13T10:30:14;33.3;;;26.7;;
62457;SDS011;48509;52.122;5.250;2023-02-13T10:31:56;39.5;;;27.8;;
62457;SDS011;48509;52.122;5.250;2023-02-13T10:33:39;36.31;;;27.7;;
62457;SDS011;48509;52.122;5.250;2023-02-13T10:35:23;37.5;;;26.9;;
62457;SDS011;48509;52.122;5.250;2023-02-13T10:37:07;35.9;;;26.4;;
62457;SDS011;48509;52.122;5.250;2023-02-13T10:40:36;36.1;;;26.8;;
62457;SDS011;48509;52.122;5.250;2023-02-13T10:42:22;40.9;;;28.3;;
62457;SDS011;48509;52.122;5.250;2023-02-13T10:44:14;39.0;;;28.6;;
62457;SDS011;48509;52.122;5.250;2023-02-13T10:46:09;39.9;;;28.7;;
62457;SDS011;48509;52.122;5.250;2023-02-13T10:47:58;35.1;;;27.2;;
62457;SDS011;48509;52.122;5.250;2023-02-13T10:49:52;36.71;;;27.1;;
62457;SDS011;48509;52.122;5.250;2023-02-13T10:51:38;36.6;;;27.3;;
62457;SDS011;48509;52.122;5.250;2023-02-13T10:55:19;38.5;;;27.2;;
62457;SDS011;48509;52.122;5.250;2023-02-13T10:57:12;33.4;;;24.8;;
62457;SDS011;48509;52.122;5.250;2023-02-13T10:59:04;34.21;;;26.3;;
62457;SDS011;48509;52.122;5.250;2023-02-13T11:00:54;34.21;;;26.3;;
62457;SDS011;48509;52.122;5.250;2023-02-13T11:02:36;39.5;;;28.9;;
62457;SDS011;48509;52.122;5.250;2023-02-13T11:04:12;33.8;;;24.7;;
62457;SDS011;48509;52.122;5.250;2023-02-13T11:07:32;35.1;;;26.0;;
62457;SDS011;48509;52.122;5.250;2023-02-13T11:09:12;36.21;;;25.8;;
62457;SDS011;48509;52.122;5.250;2023-02-13T11:10:48;35.9;;;25.6;;
62457;SDS011;48509;52.122;5.250;2023-02-13T11:14:07;32.21;;;24.6;;
62457;SDS011;48509;52.122;5.250;2023-02-13T11:15:55;37.71;;;26.1;;
62457;SDS011;48509;52.122;5.250;2023-02-13T11:17:35;36.4;;;26.1;;
62457;SDS011;48509;52.122;5.250;2023-02-13T11:19:17;34.4;;;25.7;;
62457;SDS011;48509;52.122;5.250;2023-02-13T11:20:57;32.4;;;23.6;;
62457;SDS011;48509;52.122;5.250;2023-02-13T11:24:17;36.9;;;25.8;;
62457;SDS011;48509;52.122;5.250;2023-02-13T11:25:56;31.9;;;24.2;;
62457;SDS011;48509;52.122;5.250;2023-02-13T11:27:36;30.1;;;23.2;;
62457;SDS011;48509;52.122;5.250;2023-02-13T11:29:15;35.71;;;24.7;;
62457;SDS011;48509;52.122;5.250;2023-02-13T11:32:54;31.7;;;23.7;;
62457;SDS011;48509;52.122;5.250;2023-02-13T11:34:33;31.9;;;22.4;;
62457;SDS011;48509;52.122;5.250;2023-02-13T11:36:11;30.9;;;21.5;;
62457;SDS011;48509;52.122;5.250;2023-02-13T11:39:55;31.9;;;25.3;;
62457;SDS011;48509;52.122;5.250;2023-02-13T11:43:17;33.8;;;25.5;;
62457;SDS011;48509;52.122;5.250;2023-02-13T11:45:04;34.21;;;24.6;;
62457;SDS011;48509;52.122;5.250;2023-02-13T11:46:54;32.0;;;24.1;;
62457;SDS011;48509;52.122;5.250;2023-02-13T11:48:33;33.1;;;24.2;;
62457;SDS011;48509;52.122;5.250;2023-02-13T11:50:18;30.6;;;22.4;;
62457;SDS011;48509;52.122;5.250;2023-02-13T11:54:00;34.31;;;23.4;;
62457;SDS011;48509;52.122;5.250;2023-02-13T11:55:37;33.8;;;24.5;;
62457;SDS011;48509;52.122;5.250;2023-02-13T11:58:59;29.4;;;22.6;;
62457;SDS011;48509;52.122;5.250;2023-02-13T12:00:39;30.7;;;22.5;;
62457;SDS011;48509;52.122;5.250;2023-02-13T12:04:00;30.1;;;21.8;;
62457;SDS011;48509;52.122;5.250;2023-02-13T12:05:41;30.6;;;22.4;;
62457;SDS011;48509;52.122;5.250;2023-02-13T12:07:35;30.0;;;22.4;;
62457;SDS011;48509;52.122;5.250;2023-02-13T12:09:13;33.21;;;22.3;;
62457;SDS011;48509;52.122;5.250;2023-02-13T12:12:31;30.8;;;22.1;;
62457;SDS011;48509;52.122;5.250;2023-02-13T12:14:13;27.9;;;22.0;;
62457;SDS011;48509;52.122;5.250;2023-02-13T12:15:57;28.4;;;21.3;;
62457;SDS011;48509;52.122;5.250;2023-02-13T12:17:36;29.1;;;20.6;;
62457;SDS011;48509;52.122;5.250;2023-02-13T12:21:00;29.7;;;21.6;;
62457;SDS011;48509;52.122;5.250;2023-02-13T12:22:48;28.9;;;21.0;;
62457;SDS011;48509;52.122;5.250;2023-02-13T12:24:45;30.4;;;21.5;;
62457;SDS011;48509;52.122;5.250;2023-02-13T12:26:50;28.0;;;20.11;;
62457;SDS011;48509;52.122;5.250;2023-02-13T12:28:36;24.8;;;18.8;;
62457;SDS011;48509;52.122;5.250;2023-02-13T12:30:38;27.0;;;20.2;;
62457;SDS011;48509;52.122;5.250;2023-02-13T12:34:02;30.2;;;21.4;;
62457;SDS011;48509;52.122;5.250;2023-02-13T12:36:27;23.9;;;19.0;;
62457;SDS011;48509;52.122;5.250;2023-02-13T12:40:11;27.2;;;19.41;;
62457;SDS011;48509;52.122;5.250;2023-02-13T12:42:08;24.0;;;19.3;;
62457;SDS011;48509;52.122;5.250;2023-02-13T12:44:26;26.9;;;19.5;;
62457;SDS011;48509;52.122;5.250;2023-02-13T12:46:53;26.7;;;20.5;;
62457;SDS011;48509;52.122;5.250;2023-02-13T12:50:37;28.2;;;20.6;;
62457;SDS011;48509;52.122;5.250;2023-02-13T12:52:33;27.6;;;20.11;;
62457;SDS011;48509;52.122;5.250;2023-02-13T12:54:25;29.1;;;20.9;;
62457;SDS011;48509;52.122;5.250;2023-02-13T12:56:29;32.4;;;21.7;;
62457;SDS011;48509;52.122;5.250;2023-02-13T12:59:12;35.0;;;22.7;;
62457;SDS011;48509;52.122;5.250;2023-02-13T13:02:50;29.4;;;19.8;;
62457;SDS011;48509;52.122;5.250;2023-02-13T13:05:01;27.6;;;20.0;;
62457;SDS011;48509;52.122;5.250;2023-02-13T13:06:53;26.7;;;21.3;;
62457;SDS011;48509;52.122;5.250;2023-02-13T13:09:11;30.4;;;23.2;;
62457;SDS011;48509;52.122;5.250;2023-02-13T13:12:26;29.9;;;22.4;;
62457;SDS011;48509;52.122;5.250;2023-02-13T13:14:26;28.7;;;22.0;;
62457;SDS011;48509;52.122;5.250;2023-02-13T13:16:14;29.3;;;21.7;;
62457;SDS011;48509;52.122;5.250;2023-02-13T13:18:02;28.7;;;21.0;;
62457;SDS011;48509;52.122;5.250;2023-02-13T13:21:39;27.6;;;20.8;;
62457;SDS011;48509;52.122;5.250;2023-02-13T13:23:24;27.3;;;20.6;;